Guia Lopes Da Laguna, Brazil
Current Conditions -  °F | °C
As of 6:00 AM on Friday 31 Oct 2014 (Local Time) from SBCG Reporting Station
Broken Clouds Broken Clouds  
Wind Chill: 70°   Ceiling: 10000
Heat Index: 70°   Visibility: 6mi
Dew Point: 66°   Wind: 9mph
Humidity: 88%   Direction: 40°NE
Pressure: 29.91"   Gusts: NA
Location:  21.46°S, 56.11°W
Report Text: SBCG 310900Z 04008KT 9999 SCT020 FEW050TCU BKN100 21/19 Q1013
Loading
Personal Weather Stations






























Interactive Weather Map
Tropical Storm Tracking
New forecast layout! Learn more

10-Day Weather Forecast

Advertisements
Track Severe Weather on mobile